sensor_id;sensor_type;location;lat;lon;timestamp;pressure;altitude;pressure_sealevel;temperature;humidity
64340;BME280;63709;53.258;-8.814;2024-01-30T00:00:38;102781.75;;;6.10;100.00
64340;BME280;63709;53.258;-8.814;2024-01-30T00:03:03;102783.56;;;6.07;100.00
64340;BME280;63709;53.258;-8.814;2024-01-30T00:05:29;102780.03;;;6.09;100.00
64340;BME280;63709;53.258;-8.814;2024-01-30T00:07:54;102789.19;;;5.95;100.00
64340;BME280;63709;53.258;-8.814;2024-01-30T00:10:20;102786.78;;;5.83;100.00
64340;BME280;63709;53.258;-8.814;2024-01-30T00:12:46;102784.13;;;5.83;100.00
64340;BME280;63709;53.258;-8.814;2024-01-30T00:15:11;102787.72;;;5.80;100.00
64340;BME280;63709;53.258;-8.814;2024-01-30T00:17:37;102774.94;;;5.61;100.00
64340;BME280;63709;53.258;-8.814;2024-01-30T00:20:03;102792.28;;;5.74;100.00
64340;BME280;63709;53.258;-8.814;2024-01-30T00:22:31;102793.34;;;5.67;100.00
64340;BME280;63709;53.258;-8.814;2024-01-30T00:24:57;102794.13;;;5.70;100.00
64340;BME280;63709;53.258;-8.814;2024-01-30T00:27:22;102789.81;;;5.66;100.00
64340;BME280;63709;53.258;-8.814;2024-01-30T00:29:48;102770.06;;;5.42;100.00
64340;BME280;63709;53.258;-8.814;2024-01-30T00:32:14;102798.88;;;5.56;100.00
64340;BME280;63709;53.258;-8.814;2024-01-30T00:34:41;102794.47;;;5.56;100.00
64340;BME280;63709;53.258;-8.814;2024-01-30T00:37:06;102794.66;;;5.47;100.00
64340;BME280;63709;53.258;-8.814;2024-01-30T00:39:32;102800.88;;;5.45;100.00
64340;BME280;63709;53.258;-8.814;2024-01-30T00:41:57;102800.97;;;5.42;100.00
64340;BME280;63709;53.258;-8.814;2024-01-30T00:44:23;102808.66;;;5.52;100.00
64340;BME280;63709;53.258;-8.814;2024-01-30T00:46:48;102807.16;;;5.41;100.00
64340;BME280;63709;53.258;-8.814;2024-01-30T00:49:14;102802.94;;;5.32;100.00
64340;BME280;63709;53.258;-8.814;2024-01-30T00:51:39;102810.81;;;5.33;100.00
64340;BME280;63709;53.258;-8.814;2024-01-30T00:54:05;102810.59;;;5.46;100.00
64340;BME280;63709;53.258;-8.814;2024-01-30T00:56:31;102814.16;;;5.43;100.00
64340;BME280;63709;53.258;-8.814;2024-01-30T00:58:57;102813.25;;;5.46;100.00
64340;BME280;63709;53.258;-8.814;2024-01-30T01:01:22;102816.69;;;5.49;100.00
64340;BME280;63709;53.258;-8.814;2024-01-30T01:03:48;102811.75;;;5.32;100.00
64340;BME280;63709;53.258;-8.814;2024-01-30T01:06:14;102811.09;;;5.21;100.00
64340;BME280;63709;53.258;-8.814;2024-01-30T01:08:39;102821.06;;;5.08;100.00
64340;BME280;63709;53.258;-8.814;2024-01-30T01:11:05;102814.09;;;5.04;100.00
64340;BME280;63709;53.258;-8.814;2024-01-30T01:13:30;102812.31;;;5.03;100.00
64340;BME280;63709;53.258;-8.814;2024-01-30T01:15:56;102818.25;;;5.16;100.00
64340;BME280;63709;53.258;-8.814;2024-01-30T01:18:21;102815.78;;;5.08;100.00
64340;BME280;63709;53.258;-8.814;2024-01-30T01:20:47;102819.25;;;5.10;100.00
64340;BME280;63709;53.258;-8.814;2024-01-30T01:23:12;102815.00;;;5.02;100.00
64340;BME280;63709;53.258;-8.814;2024-01-30T01:25:37;102822.91;;;5.03;100.00
64340;BME280;63709;53.258;-8.814;2024-01-30T01:28:03;102810.38;;;5.12;100.00
64340;BME280;63709;53.258;-8.814;2024-01-30T01:30:29;102810.53;;;5.05;100.00
64340;BME280;63709;53.258;-8.814;2024-01-30T01:32:55;102816.69;;;5.06;100.00
64340;BME280;63709;53.258;-8.814;2024-01-30T01:35:24;102817.56;;;5.06;100.00
64340;BME280;63709;53.258;-8.814;2024-01-30T01:37:54;102819.44;;;5.00;100.00
64340;BME280;63709;53.258;-8.814;2024-01-30T01:40:29;102823.88;;;5.01;100.00
64340;BME280;63709;53.258;-8.814;2024-01-30T01:42:55;102820.41;;;4.97;100.00
64340;BME280;63709;53.258;-8.814;2024-01-30T01:45:21;102813.38;;;4.95;100.00
64340;BME280;63709;53.258;-8.814;2024-01-30T01:47:50;102822.09;;;5.01;100.00
64340;BME280;63709;53.258;-8.814;2024-01-30T01:50:16;102828.25;;;5.02;100.00
64340;BME280;63709;53.258;-8.814;2024-01-30T01:52:48;102831.88;;;4.96;100.00
64340;BME280;63709;53.258;-8.814;2024-01-30T01:55:15;102844.50;;;4.80;100.00
64340;BME280;63709;53.258;-8.814;2024-01-30T01:57:41;102839.13;;;4.87;100.00
64340;BME280;63709;53.258;-8.814;2024-01-30T02:00:08;102843.69;;;4.77;100.00
64340;BME280;63709;53.258;-8.814;2024-01-30T02:02:36;102848.06;;;4.79;100.00
64340;BME280;63709;53.258;-8.814;2024-01-30T02:05:01;102849.91;;;4.74;100.00
64340;BME280;63709;53.258;-8.814;2024-01-30T02:07:28;102839.31;;;4.74;100.00
64340;BME280;63709;53.258;-8.814;2024-01-30T02:09:53;102842.59;;;4.89;100.00
64340;BME280;63709;53.258;-8.814;2024-01-30T02:12:19;102843.69;;;4.78;100.00
64340;BME280;63709;53.258;-8.814;2024-01-30T02:14:45;102836.66;;;4.76;100.00
64340;BME280;63709;53.258;-8.814;2024-01-30T02:17:12;102841.88;;;4.80;100.00
64340;BME280;63709;53.258;-8.814;2024-01-30T02:19:37;102844.56;;;4.79;100.00
64340;BME280;63709;53.258;-8.814;2024-01-30T02:22:03;102846.19;;;4.84;100.00
64340;BME280;63709;53.258;-8.814;2024-01-30T02:24:29;102831.38;;;4.76;100.00
64340;BME280;63709;53.258;-8.814;2024-01-30T02:26:54;102839.19;;;4.82;100.00
64340;BME280;63709;53.258;-8.814;2024-01-30T02:29:20;102835.03;;;4.67;100.00
64340;BME280;63709;53.258;-8.814;2024-01-30T02:31:46;102834.94;;;4.75;100.00
64340;BME280;63709;53.258;-8.814;2024-01-30T02:34:11;102838.47;;;4.74;100.00
64340;BME280;63709;53.258;-8.814;2024-01-30T02:36:37;102837.44;;;4.81;100.00
64340;BME280;63709;53.258;-8.814;2024-01-30T02:39:03;102840.41;;;4.64;100.00
64340;BME280;63709;53.258;-8.814;2024-01-30T02:41:28;102838.50;;;4.72;100.00
64340;BME280;63709;53.258;-8.814;2024-01-30T02:43:54;102836.66;;;4.76;100.00
64340;BME280;63709;53.258;-8.814;2024-01-30T02:46:19;102833.22;;;4.72;100.00
64340;BME280;63709;53.258;-8.814;2024-01-30T02:48:45;102836.63;;;4.79;100.00
64340;BME280;63709;53.258;-8.814;2024-01-30T02:51:10;102837.50;;;4.79;100.00
64340;BME280;63709;53.258;-8.814;2024-01-30T02:53:36;102839.41;;;4.71;100.00
64340;BME280;63709;53.258;-8.814;2024-01-30T02:56:02;102836.00;;;4.65;100.00
64340;BME280;63709;53.258;-8.814;2024-01-30T02:58:28;102845.56;;;4.72;100.00
64340;BME280;63709;53.258;-8.814;2024-01-30T03:00:53;102839.41;;;4.71;100.00
64340;BME280;63709;53.258;-8.814;2024-01-30T03:03:19;102847.34;;;4.71;100.00
64340;BME280;63709;53.258;-8.814;2024-01-30T03:05:44;102841.25;;;4.66;100.00
64340;BME280;63709;53.258;-8.814;2024-01-30T03:08:10;102841.91;;;4.79;100.00
64340;BME280;63709;53.258;-8.814;2024-01-30T03:10:35;102847.41;;;4.68;100.00
64340;BME280;63709;53.258;-8.814;2024-01-30T03:13:01;102842.19;;;4.64;100.00
64340;BME280;63709;53.258;-8.814;2024-01-30T03:15:26;102843.13;;;4.59;100.00
64340;BME280;63709;53.258;-8.814;2024-01-30T03:17:53;102846.47;;;4.69;100.00
64340;BME280;63709;53.258;-8.814;2024-01-30T03:20:19;102843.06;;;4.64;100.00
64340;BME280;63709;53.258;-8.814;2024-01-30T03:22:44;102847.59;;;4.56;100.00
64340;BME280;63709;53.258;-8.814;2024-01-30T03:25:10;102853.00;;;4.48;100.00
64340;BME280;63709;53.258;-8.814;2024-01-30T03:27:35;102840.78;;;4.41;100.00
64340;BME280;63709;53.258;-8.814;2024-01-30T03:30:01;102856.72;;;4.38;100.00
64340;BME280;63709;53.258;-8.814;2024-01-30T03:32:27;102858.50;;;4.36;100.00
64340;BME280;63709;53.258;-8.814;2024-01-30T03:34:53;102856.72;;;4.38;100.00
64340;BME280;63709;53.258;-8.814;2024-01-30T03:37:18;102860.81;;;4.56;100.00
64340;BME280;63709;53.258;-8.814;2024-01-30T03:39:44;102862.41;;;4.68;100.00
64340;BME280;63709;53.258;-8.814;2024-01-30T03:42:09;102862.41;;;4.66;100.00
64340;BME280;63709;53.258;-8.814;2024-01-30T03:44:35;102864.25;;;4.61;100.00
64340;BME280;63709;53.258;-8.814;2024-01-30T03:47:00;102863.53;;;4.51;100.00
64340;BME280;63709;53.258;-8.814;2024-01-30T03:49:26;102858.94;;;4.64;100.00
64340;BME280;63709;53.258;-8.814;2024-01-30T03:51:51;102858.19;;;4.54;100.00
64340;BME280;63709;53.258;-8.814;2024-01-30T03:54:16;102858.06;;;4.62;100.00
64340;BME280;63709;53.258;-8.814;2024-01-30T03:56:42;102861.44;;;4.72;100.00
64340;BME280;63709;53.258;-8.814;2024-01-30T03:59:07;102862.25;;;4.75;100.00
64340;BME280;63709;53.258;-8.814;2024-01-30T04:01:33;102863.91;;;4.82;100.00
64340;BME280;63709;53.258;-8.814;2024-01-30T04:03:58;102856.81;;;4.83;100.00
64340;BME280;63709;53.258;-8.814;2024-01-30T04:06:24;102862.91;;;4.88;100.00
64340;BME280;63709;53.258;-8.814;2024-01-30T04:08:49;102858.50;;;4.87;100.00
64340;BME280;63709;53.258;-8.814;2024-01-30T04:11:15;102870.81;;;4.90;100.00
64340;BME280;63709;53.258;-8.814;2024-01-30T04:13:40;102875.22;;;4.91;100.00
64340;BME280;63709;53.258;-8.814;2024-01-30T04:16:08;102872.31;;;5.03;100.00
64340;BME280;63709;53.258;-8.814;2024-01-30T04:18:33;102859.81;;;5.11;100.00
64340;BME280;63709;53.258;-8.814;2024-01-30T04:20:59;102873.00;;;5.14;100.00
64340;BME280;63709;53.258;-8.814;2024-01-30T04:23:24;102872.22;;;5.09;100.00
64340;BME280;63709;53.258;-8.814;2024-01-30T04:25:50;102870.03;;;5.29;100.00
64340;BME280;63709;53.258;-8.814;2024-01-30T04:28:15;102872.53;;;5.37;100.00
64340;BME280;63709;53.258;-8.814;2024-01-30T04:30:41;102877.16;;;5.27;100.00
64340;BME280;63709;53.258;-8.814;2024-01-30T04:33:06;102876.34;;;5.24;100.00
64340;BME280;63709;53.258;-8.814;2024-01-30T04:35:32;102875.34;;;5.31;100.00
64340;BME280;63709;53.258;-8.814;2024-01-30T04:37:57;102882.22;;;5.40;100.00
64340;BME280;63709;53.258;-8.814;2024-01-30T04:40:23;102879.41;;;5.47;100.00
64340;BME280;63709;53.258;-8.814;2024-01-30T04:42:48;102887.28;;;5.50;100.00
64340;BME280;63709;53.258;-8.814;2024-01-30T04:45:14;102890.63;;;5.60;100.00
64340;BME280;63709;53.258;-8.814;2024-01-30T04:47:40;102891.50;;;5.61;100.00
64340;BME280;63709;53.258;-8.814;2024-01-30T04:50:08;102896.38;;;5.80;100.00
64340;BME280;63709;53.258;-8.814;2024-01-30T04:52:34;102885.59;;;5.90;100.00
64340;BME280;63709;53.258;-8.814;2024-01-30T04:54:59;102892.59;;;5.94;100.00
64340;BME280;63709;53.258;-8.814;2024-01-30T04:57:25;102886.19;;;6.02;100.00
64340;BME280;63709;53.258;-8.814;2024-01-30T04:59:50;102903.03;;;6.01;100.00
64340;BME280;63709;53.258;-8.814;2024-01-30T05:02:16;102906.66;;;5.97;100.00
64340;BME280;63709;53.258;-8.814;2024-01-30T05:04:41;102902.31;;;5.93;100.00
64340;BME280;63709;53.258;-8.814;2024-01-30T05:07:07;102911.19;;;5.89;100.00
64340;BME280;63709;53.258;-8.814;2024-01-30T05:09:32;102908.69;;;5.83;100.00
64340;BME280;63709;53.258;-8.814;2024-01-30T05:11:58;102908.44;;;5.95;100.00
64340;BME280;63709;53.258;-8.814;2024-01-30T05:14:23;102908.63;;;5.86;100.00
64340;BME280;63709;53.258;-8.814;2024-01-30T05:16:49;102903.44;;;5.80;100.00
64340;BME280;63709;53.258;-8.814;2024-01-30T05:19:14;102902.66;;;5.76;100.00
64340;BME280;63709;53.258;-8.814;2024-01-30T05:21:41;102907.19;;;5.70;100.00
64340;BME280;63709;53.258;-8.814;2024-01-30T05:24:06;102912.50;;;5.70;100.00
64340;BME280;63709;53.258;-8.814;2024-01-30T05:26:32;102911.28;;;5.85;100.00
64340;BME280;63709;53.258;-8.814;2024-01-30T05:28:58;102907.00;;;5.79;100.00
64340;BME280;63709;53.258;-8.814;2024-01-30T05:31:23;102894.84;;;5.69;100.00
64340;BME280;63709;53.258;-8.814;2024-01-30T05:33:51;102914.28;;;5.69;100.00
64340;BME280;63709;53.258;-8.814;2024-01-30T05:36:16;102920.50;;;5.67;100.00
64340;BME280;63709;53.258;-8.814;2024-01-30T05:38:42;102925.09;;;5.58;100.00
64340;BME280;63709;53.258;-8.814;2024-01-30T05:41:08;102931.94;;;5.69;100.00
64340;BME280;63709;53.258;-8.814;2024-01-30T05:43:34;102934.78;;;5.59;100.00
64340;BME280;63709;53.258;-8.814;2024-01-30T05:45:59;102940.97;;;5.58;100.00
64340;BME280;63709;53.258;-8.814;2024-01-30T05:48:25;102942.09;;;5.47;100.00
64340;BME280;63709;53.258;-8.814;2024-01-30T05:50:50;102951.94;;;5.40;100.00
64340;BME280;63709;53.258;-8.814;2024-01-30T05:53:16;102948.50;;;5.35;100.00
64340;BME280;63709;53.258;-8.814;2024-01-30T05:55:41;102950.25;;;5.36;100.00
64340;BME280;63709;53.258;-8.814;2024-01-30T05:58:07;102947.75;;;5.28;100.00
64340;BME280;63709;53.258;-8.814;2024-01-30T06:00:32;102943.31;;;5.30;100.00
64340;BME280;63709;53.258;-8.814;2024-01-30T06:02:57;102954.63;;;5.37;100.00
64340;BME280;63709;53.258;-8.814;2024-01-30T06:05:23;102960.00;;;5.34;100.00
64340;BME280;63709;53.258;-8.814;2024-01-30T06:07:48;102957.56;;;5.22;100.00
64340;BME280;63709;53.258;-8.814;2024-01-30T06:10:14;102964.34;;;5.38;100.00
64340;BME280;63709;53.258;-8.814;2024-01-30T06:12:39;102961.94;;;5.24;100.00
64340;BME280;63709;53.258;-8.814;2024-01-30T06:15:05;102959.19;;;5.30;100.00
64340;BME280;63709;53.258;-8.814;2024-01-30T06:17:32;102963.69;;;5.25;100.00
64340;BME280;63709;53.258;-8.814;2024-01-30T06:19:57;102966.84;;;5.44;100.00
64340;BME280;63709;53.258;-8.814;2024-01-30T06:22:23;102965.97;;;5.45;100.00
64340;BME280;63709;53.258;-8.814;2024-01-30T06:24:48;102966.81;;;5.47;100.00
64340;BME280;63709;53.258;-8.814;2024-01-30T06:27:14;102971.09;;;5.54;100.00
64340;BME280;63709;53.258;-8.814;2024-01-30T06:29:40;102970.09;;;5.60;100.00
64340;BME280;63709;53.258;-8.814;2024-01-30T06:32:06;102978.97;;;5.57;100.00
64340;BME280;63709;53.258;-8.814;2024-01-30T06:34:31;102988.41;;;5.72;100.00
64340;BME280;63709;53.258;-8.814;2024-01-30T06:36:57;102982.94;;;5.80;100.00
64340;BME280;63709;53.258;-8.814;2024-01-30T06:39:22;102980.06;;;5.92;100.00
64340;BME280;63709;53.258;-8.814;2024-01-30T06:41:48;102987.09;;;5.95;100.00
64340;BME280;63709;53.258;-8.814;2024-01-30T06:44:14;102989.59;;;6.02;100.00
64340;BME280;63709;53.258;-8.814;2024-01-30T06:46:40;102996.56;;;6.06;100.00
64340;BME280;63709;53.258;-8.814;2024-01-30T06:49:05;102992.19;;;6.04;100.00
64340;BME280;63709;53.258;-8.814;2024-01-30T06:51:31;102995.00;;;5.96;100.00
64340;BME280;63709;53.258;-8.814;2024-01-30T06:53:56;103006.41;;;6.01;100.00
64340;BME280;63709;53.258;-8.814;2024-01-30T06:56:22;103007.97;;;6.10;100.00
64340;BME280;63709;53.258;-8.814;2024-01-30T06:58:50;103003.38;;;6.18;100.00
64340;BME280;63709;53.258;-8.814;2024-01-30T07:01:16;102997.22;;;6.18;100.00
64340;BME280;63709;53.258;-8.814;2024-01-30T07:03:42;103011.34;;;6.18;100.00
64340;BME280;63709;53.258;-8.814;2024-01-30T07:06:09;102999.97;;;6.13;100.00
64340;BME280;63709;53.258;-8.814;2024-01-30T07:08:36;102989.41;;;6.10;100.00
64340;BME280;63709;53.258;-8.814;2024-01-30T07:11:04;102995.41;;;6.20;100.00
64340;BME280;63709;53.258;-8.814;2024-01-30T07:13:30;102999.19;;;6.48;100.00
64340;BME280;63709;53.258;-8.814;2024-01-30T07:15:55;103002.75;;;6.47;100.00
64340;BME280;63709;53.258;-8.814;2024-01-30T07:18:20;102998.44;;;6.43;100.00
64340;BME280;63709;53.258;-8.814;2024-01-30T07:20:46;103007.47;;;6.33;100.00
64340;BME280;63709;53.258;-8.814;2024-01-30T07:23:13;103007.72;;;6.22;100.00
64340;BME280;63709;53.258;-8.814;2024-01-30T07:25:41;103006.78;;;6.25;100.00
64340;BME280;63709;53.258;-8.814;2024-01-30T07:28:07;102999.97;;;6.12;100.00
64340;BME280;63709;53.258;-8.814;2024-01-30T07:30:35;103007.66;;;6.25;100.00
64340;BME280;63709;53.258;-8.814;2024-01-30T07:33:00;103015.66;;;6.22;100.00
64340;BME280;63709;53.258;-8.814;2024-01-30T07:35:26;103023.78;;;6.15;100.00
64340;BME280;63709;53.258;-8.814;2024-01-30T07:37:51;103025.63;;;6.11;100.00
64340;BME280;63709;53.258;-8.814;2024-01-30T07:40:17;103025.56;;;6.16;100.00
64340;BME280;63709;53.258;-8.814;2024-01-30T07:42:42;103035.25;;;6.17;100.00
64340;BME280;63709;53.258;-8.814;2024-01-30T07:45:08;103027.28;;;6.17;100.00
64340;BME280;63709;53.258;-8.814;2024-01-30T07:47:34;103019.19;;;6.23;100.00
64340;BME280;63709;53.258;-8.814;2024-01-30T07:49:59;103035.50;;;6.46;100.00
64340;BME280;63709;53.258;-8.814;2024-01-30T07:52:25;103038.91;;;6.53;100.00
64340;BME280;63709;53.258;-8.814;2024-01-30T07:54:51;103039.94;;;6.46;100.00
64340;BME280;63709;53.258;-8.814;2024-01-30T07:57:17;103041.91;;;6.36;100.00
64340;BME280;63709;53.258;-8.814;2024-01-30T07:59:43;103043.78;;;6.31;100.00
64340;BME280;63709;53.258;-8.814;2024-01-30T08:02:09;103051.00;;;6.24;100.00
64340;BME280;63709;53.258;-8.814;2024-01-30T08:04:35;103028.09;;;6.20;100.00
64340;BME280;63709;53.258;-8.814;2024-01-30T08:07:01;103053.00;;;6.12;100.00
64340;BME280;63709;53.258;-8.814;2024-01-30T08:09:26;103051.63;;;5.94;100.00
64340;BME280;63709;53.258;-8.814;2024-01-30T08:11:51;103048.81;;;6.01;100.00
64340;BME280;63709;53.258;-8.814;2024-01-30T08:14:17;103041.03;;;5.92;100.00
64340;BME280;63709;53.258;-8.814;2024-01-30T08:16:44;103048.88;;;5.98;100.00
64340;BME280;63709;53.258;-8.814;2024-01-30T08:19:09;103068.31;;;5.99;100.00
64340;BME280;63709;53.258;-8.814;2024-01-30T08:21:34;103062.06;;;6.01;100.00
64340;BME280;63709;53.258;-8.814;2024-01-30T08:24:04;103071.78;;;6.02;100.00
64340;BME280;63709;53.258;-8.814;2024-01-30T08:26:30;103076.19;;;6.02;100.00
64340;BME280;63709;53.258;-8.814;2024-01-30T08:28:56;103073.97;;;5.77;100.00
64340;BME280;63709;53.258;-8.814;2024-01-30T08:31:21;103074.94;;;5.75;100.00
64340;BME280;63709;53.258;-8.814;2024-01-30T08:33:46;103078.28;;;5.83;100.00
64340;BME280;63709;53.258;-8.814;2024-01-30T08:36:12;103083.59;;;5.83;100.00
64340;BME280;63709;53.258;-8.814;2024-01-30T08:38:38;103076.53;;;5.82;100.00
64340;BME280;63709;53.258;-8.814;2024-01-30T08:41:03;103080.03;;;5.84;100.00
64340;BME280;63709;53.258;-8.814;2024-01-30T08:43:28;103074.63;;;5.89;100.00
64340;BME280;63709;53.258;-8.814;2024-01-30T08:45:54;103078.09;;;5.95;100.00
64340;BME280;63709;53.258;-8.814;2024-01-30T08:48:19;103071.09;;;6.36;100.00
64340;BME280;63709;53.258;-8.814;2024-01-30T08:50:46;103082.53;;;6.38;100.00
64340;BME280;63709;53.258;-8.814;2024-01-30T08:53:12;103089.19;;;6.16;100.00
64340;BME280;63709;53.258;-8.814;2024-01-30T08:55:37;103089.31;;;6.10;100.00
64340;BME280;63709;53.258;-8.814;2024-01-30T08:58:02;103095.28;;;6.21;100.00
64340;BME280;63709;53.258;-8.814;2024-01-30T09:00:30;103088.53;;;6.04;100.00
64340;BME280;63709;53.258;-8.814;2024-01-30T09:02:55;103102.34;;;6.20;100.00
64340;BME280;63709;53.258;-8.814;2024-01-30T09:05:20;103099.72;;;6.19;100.00
64340;BME280;63709;53.258;-8.814;2024-01-30T09:07:46;103094.72;;;6.05;100.00
64340;BME280;63709;53.258;-8.814;2024-01-30T09:10:11;103093.53;;;6.18;100.00
64340;BME280;63709;53.258;-8.814;2024-01-30T09:12:37;103089.91;;;6.22;100.00
64340;BME280;63709;53.258;-8.814;2024-01-30T09:15:03;103077.31;;;6.35;100.00
64340;BME280;63709;53.258;-8.814;2024-01-30T09:17:29;103085.28;;;6.74;100.00
64340;BME280;63709;53.258;-8.814;2024-01-30T09:19:55;103086.59;;;6.93;100.00
64340;BME280;63709;53.258;-8.814;2024-01-30T09:22:20;103079.19;;;7.08;100.00
64340;BME280;63709;53.258;-8.814;2024-01-30T09:24:45;103090.22;;;7.28;100.00
64340;BME280;63709;53.258;-8.814;2024-01-30T09:27:11;103083.13;;;7.28;100.00
64340;BME280;63709;53.258;-8.814;2024-01-30T09:29:36;103080.22;;;7.38;100.00
64340;BME280;63709;53.258;-8.814;2024-01-30T09:32:02;103080.81;;;7.15;100.00
64340;BME280;63709;53.258;-8.814;2024-01-30T09:34:28;103086.66;;;7.29;100.00
64340;BME280;63709;53.258;-8.814;2024-01-30T09:36:54;103085.59;;;7.36;100.00
64340;BME280;63709;53.258;-8.814;2024-01-30T09:39:19;103089.84;;;7.43;100.00
64340;BME280;63709;53.258;-8.814;2024-01-30T09:41:49;103073.78;;;7.48;100.00
64340;BME280;63709;53.258;-8.814;2024-01-30T09:44:20;103097.94;;;7.73;100.00
64340;BME280;63709;53.258;-8.814;2024-01-30T09:46:47;103094.34;;;7.75;100.00
64340;BME280;63709;53.258;-8.814;2024-01-30T09:49:13;103092.75;;;8.01;100.00
64340;BME280;63709;53.258;-8.814;2024-01-30T09:51:39;103098.44;;;8.20;100.00
64340;BME280;63709;53.258;-8.814;2024-01-30T09:54:05;103101.53;;;8.36;100.00
64340;BME280;63709;53.258;-8.814;2024-01-30T09:56:33;103099.31;;;8.52;100.00
64340;BME280;63709;53.258;-8.814;2024-01-30T09:58:58;103098.13;;;8.62;100.00
64340;BME280;63709;53.258;-8.814;2024-01-30T10:01:25;103112.06;;;8.70;100.00
64340;BME280;63709;53.258;-8.814;2024-01-30T10:03:51;103093.34;;;8.73;100.00
64340;BME280;63709;53.258;-8.814;2024-01-30T10:06:18;103121.41;;;8.85;100.00
64340;BME280;63709;53.258;-8.814;2024-01-30T10:08:44;103129.28;;;8.88;100.00
64340;BME280;63709;53.258;-8.814;2024-01-30T10:11:09;103137.00;;;8.97;100.00
64340;BME280;63709;53.258;-8.814;2024-01-30T10:13:35;103128.75;;;9.05;100.00
64340;BME280;63709;53.258;-8.814;2024-01-30T10:16:00;103123.25;;;9.11;100.00
64340;BME280;63709;53.258;-8.814;2024-01-30T10:18:28;103127.97;;;9.29;100.00
64340;BME280;63709;53.258;-8.814;2024-01-30T10:20:54;103124.00;;;9.42;100.00
64340;BME280;63709;53.258;-8.814;2024-01-30T10:23:19;103130.13;;;9.46;100.00
64340;BME280;63709;53.258;-8.814;2024-01-30T10:25:45;103114.88;;;9.50;100.00
64340;BME280;63709;53.258;-8.814;2024-01-30T10:28:11;103116.19;;;9.63;100.00
64340;BME280;63709;53.258;-8.814;2024-01-30T10:30:37;103123.25;;;9.64;100.00
64340;BME280;63709;53.258;-8.814;2024-01-30T10:33:02;103139.66;;;9.53;100.00
64340;BME280;63709;53.258;-8.814;2024-01-30T10:35:28;103126.31;;;9.80;100.00
64340;BME280;63709;53.258;-8.814;2024-01-30T10:37:56;103115.94;;;9.70;100.00
64340;BME280;63709;53.258;-8.814;2024-01-30T10:40:27;103126.56;;;9.97;100.00
64340;BME280;63709;53.258;-8.814;2024-01-30T10:42:53;103134.44;;;10.02;100.00
64340;BME280;63709;53.258;-8.814;2024-01-30T10:45:22;103126.25;;;10.06;100.00
64340;BME280;63709;53.258;-8.814;2024-01-30T10:47:50;103132.78;;;10.23;100.00
64340;BME280;63709;53.258;-8.814;2024-01-30T10:50:18;103140.38;;;10.35;100.00
64340;BME280;63709;53.258;-8.814;2024-01-30T10:52:44;103135.56;;;10.45;100.00
64340;BME280;63709;53.258;-8.814;2024-01-30T10:55:11;103129.34;;;10.44;100.00
64340;BME280;63709;53.258;-8.814;2024-01-30T10:57:37;103128.56;;;10.42;100.00
64340;BME280;63709;53.258;-8.814;2024-01-30T11:00:09;103132.44;;;10.57;100.00
64340;BME280;63709;53.258;-8.814;2024-01-30T11:02:40;103118.09;;;10.59;100.00
64340;BME280;63709;53.258;-8.814;2024-01-30T11:05:06;103120.00;;;10.56;100.00
64340;BME280;63709;53.258;-8.814;2024-01-30T11:07:32;103113.47;;;10.64;100.00
64340;BME280;63709;53.258;-8.814;2024-01-30T11:12:24;103103.97;;;10.56;100.00
64340;BME280;63709;53.258;-8.814;2024-01-30T11:15:01;103114.47;;;10.60;100.00
64340;BME280;63709;53.258;-8.814;2024-01-30T11:17:28;103114.34;;;10.65;100.00
64340;BME280;63709;53.258;-8.814;2024-01-30T11:19:53;103111.13;;;10.55;100.00
64340;BME280;63709;53.258;-8.814;2024-01-30T11:22:20;103097.09;;;10.50;100.00
64340;BME280;63709;53.258;-8.814;2024-01-30T11:24:46;103108.97;;;10.65;100.00
64340;BME280;63709;53.258;-8.814;2024-01-30T11:27:12;103109.78;;;10.67;100.00
64340;BME280;63709;53.258;-8.814;2024-01-30T11:29:40;103107.38;;;10.61;100.00
64340;BME280;63709;53.258;-8.814;2024-01-30T11:32:05;103101.53;;;10.73;100.00
64340;BME280;63709;53.258;-8.814;2024-01-30T11:34:32;103093.75;;;10.67;100.00
64340;BME280;63709;53.258;-8.814;2024-01-30T11:37:03;103080.50;;;10.64;100.00
64340;BME280;63709;53.258;-8.814;2024-01-30T11:39:32;103086.56;;;10.69;100.00
64340;BME280;63709;53.258;-8.814;2024-01-30T11:41:58;103060.41;;;10.77;100.00
64340;BME280;63709;53.258;-8.814;2024-01-30T11:44:24;103080.63;;;11.06;100.00
64340;BME280;63709;53.258;-8.814;2024-01-30T11:46:51;103081.41;;;11.30;100.00
64340;BME280;63709;53.258;-8.814;2024-01-30T11:49:17;103090.84;;;11.61;100.00
64340;BME280;63709;53.258;-8.814;2024-01-30T11:51:43;103097.47;;;11.73;100.00
64340;BME280;63709;53.258;-8.814;2024-01-30T11:54:10;103095.47;;;11.98;100.00
64340;BME280;63709;53.258;-8.814;2024-01-30T11:56:36;103074.75;;;11.81;100.00
64340;BME280;63709;53.258;-8.814;2024-01-30T11:59:02;103089.66;;;12.09;100.00
64340;BME280;63709;53.258;-8.814;2024-01-30T12:01:27;103085.91;;;11.93;100.00
64340;BME280;63709;53.258;-8.814;2024-01-30T12:03:53;103082.91;;;11.78;100.00
64340;BME280;63709;53.258;-8.814;2024-01-30T12:06:19;103063.78;;;11.67;100.00
64340;BME280;63709;53.258;-8.814;2024-01-30T12:08:59;103059.78;;;11.77;100.00
64340;BME280;63709;53.258;-8.814;2024-01-30T12:11:26;103076.91;;;11.73;100.00
64340;BME280;63709;53.258;-8.814;2024-01-30T12:13:52;103077.25;;;11.86;100.00
64340;BME280;63709;53.258;-8.814;2024-01-30T12:16:17;103072.78;;;12.07;100.00
64340;BME280;63709;53.258;-8.814;2024-01-30T12:18:43;103058.19;;;12.33;100.00
64340;BME280;63709;53.258;-8.814;2024-01-30T12:21:08;103055.13;;;12.22;100.00
64340;BME280;63709;53.258;-8.814;2024-01-30T12:23:34;103057.31;;;12.32;100.00
64340;BME280;63709;53.258;-8.814;2024-01-30T12:26:00;103058.09;;;12.34;100.00
64340;BME280;63709;53.258;-8.814;2024-01-30T12:28:26;103054.06;;;12.45;100.00
64340;BME280;63709;53.258;-8.814;2024-01-30T12:30:55;103045.75;;;12.51;100.00
64340;BME280;63709;53.258;-8.814;2024-01-30T12:33:20;103049.28;;;12.51;100.00